createdAt,value
2019-01-26T00:00:43.750Z,18.00
2019-01-26T00:03:12.255Z,17.70
2019-01-26T00:05:40.708Z,18.93
2019-01-26T00:08:09.145Z,19.57
2019-01-26T00:10:37.598Z,18.27
2019-01-26T00:13:06.033Z,17.33
2019-01-26T00:15:34.613Z,19.00
2019-01-26T00:18:03.135Z,16.20
2019-01-26T00:20:36.318Z,17.53
2019-01-26T00:23:01.738Z,11.77
2019-01-26T00:25:30.194Z,16.67
2019-01-26T00:27:58.624Z,15.23
2019-01-26T00:30:27.089Z,18.25
2019-01-26T00:32:55.519Z,17.63
2019-01-26T00:35:23.975Z,17.90
2019-01-26T00:37:52.414Z,17.37
2019-01-26T00:40:20.937Z,18.80
2019-01-26T00:42:49.437Z,18.10
2019-01-26T00:45:17.956Z,17.57
2019-01-26T00:47:46.395Z,19.60
2019-01-26T00:50:15.635Z,18.27
2019-01-26T00:52:44.143Z,18.70
2019-01-26T00:55:13.000Z,17.93
2019-01-26T00:57:41.527Z,19.20
2019-01-26T01:00:13.129Z,18.20
2019-01-26T01:02:41.650Z,19.10
2019-01-26T01:05:10.219Z,17.55
2019-01-26T01:07:38.689Z,19.03
2019-01-26T01:10:10.528Z,19.07
2019-01-26T01:12:38.983Z,18.63
2019-01-26T01:15:16.446Z,18.33
2019-01-26T01:17:44.964Z,19.47
2019-01-26T01:20:14.039Z,19.70
2019-01-26T01:22:42.633Z,18.80
2019-01-26T01:25:13.400Z,18.37
2019-01-26T01:27:41.930Z,18.00
2019-01-26T01:30:13.530Z,20.10
2019-01-26T01:32:42.127Z,18.73
2019-01-26T01:35:10.705Z,20.40
2019-01-26T01:37:39.159Z,19.77
2019-01-26T01:40:09.715Z,19.40
2019-01-26T01:42:38.171Z,19.70
2019-01-26T01:45:09.904Z,18.43
2019-01-26T01:47:38.441Z,18.10
2019-01-26T01:50:08.790Z,19.73
2019-01-26T01:52:37.390Z,21.37
2019-01-26T01:55:08.667Z,19.60
2019-01-26T01:57:37.118Z,19.33
2019-01-26T02:00:19.386Z,21.17
2019-01-26T02:02:47.910Z,21.70
2019-01-26T02:05:16.707Z,20.60
2019-01-26T02:07:45.249Z,18.93
2019-01-26T02:10:16.592Z,19.87
2019-01-26T02:12:45.120Z,20.20
2019-01-26T02:15:14.385Z,19.50
2019-01-26T02:17:42.926Z,18.50
2019-01-26T02:20:13.983Z,21.10
2019-01-26T02:22:42.501Z,19.20
2019-01-26T02:25:11.065Z,19.60
2019-01-26T02:27:39.890Z,19.87
2019-01-26T02:30:14.087Z,19.47
2019-01-26T02:32:42.533Z,19.97
2019-01-26T02:35:11.107Z,19.23
2019-01-26T02:37:39.557Z,20.97
2019-01-26T02:40:12.826Z,19.70
2019-01-26T02:42:41.348Z,20.43
2019-01-26T02:45:12.017Z,21.43
2019-01-26T02:47:40.611Z,20.73
2019-01-26T02:50:12.209Z,20.53
2019-01-26T02:52:40.731Z,20.17
2019-01-26T02:55:09.293Z,18.83
2019-01-26T02:57:37.818Z,19.70
2019-01-26T03:00:12.068Z,18.87
2019-01-26T03:02:40.597Z,19.50
2019-01-26T03:05:09.159Z,22.07
2019-01-26T03:07:37.615Z,20.80
2019-01-26T03:10:09.415Z,21.20
2019-01-26T03:12:37.889Z,21.23
2019-01-26T03:15:09.730Z,20.33
2019-01-26T03:17:38.160Z,21.27
2019-01-26T03:20:09.518Z,20.90
2019-01-26T03:22:37.949Z,21.63
2019-01-26T03:25:08.242Z,22.10
2019-01-26T03:27:36.744Z,20.67
2019-01-26T03:30:08.372Z,21.00
2019-01-26T03:32:36.789Z,19.37
2019-01-26T03:35:06.177Z,20.37
2019-01-26T03:37:34.604Z,21.87
2019-01-26T03:40:03.200Z,19.40
2019-01-26T03:42:31.794Z,19.60
2019-01-26T03:45:00.359Z,19.50
2019-01-26T03:47:29.224Z,20.00
2019-01-26T03:49:57.679Z,21.10
2019-01-26T03:52:26.110Z,19.83
2019-01-26T03:54:54.569Z,20.97
2019-01-26T03:57:23.070Z,21.07
2019-01-26T03:59:51.523Z,21.37
2019-01-26T04:02:19.940Z,20.37
2019-01-26T04:04:48.393Z,22.13
2019-01-26T04:07:16.818Z,20.20
2019-01-26T04:09:45.276Z,20.00
2019-01-26T04:12:13.706Z,20.23
2019-01-26T04:14:42.166Z,23.47
2019-01-26T04:17:10.590Z,20.63
2019-01-26T04:19:39.045Z,19.70
2019-01-26T04:22:07.560Z,21.40
2019-01-26T04:24:36.011Z,23.40
2019-01-26T04:27:04.579Z,21.83
2019-01-26T04:29:33.012Z,21.30
2019-01-26T04:32:01.466Z,22.70
2019-01-26T04:34:29.895Z,21.27
2019-01-26T04:36:58.364Z,25.00
2019-01-26T04:39:26.791Z,19.70
2019-01-26T04:41:55.253Z,21.13
2019-01-26T04:44:23.674Z,20.90
2019-01-26T04:46:52.134Z,21.83
2019-01-26T04:49:20.564Z,19.47
2019-01-26T04:51:49.019Z,21.93
2019-01-26T04:54:17.452Z,22.50
2019-01-26T04:56:45.978Z,22.40
2019-01-26T04:59:14.405Z,20.60
2019-01-26T05:01:42.860Z,19.87
2019-01-26T05:04:11.431Z,21.33
2019-01-26T05:06:39.886Z,23.27
2019-01-26T05:09:08.688Z,22.93
2019-01-26T05:11:37.144Z,22.83
2019-01-26T05:14:05.648Z,20.93
2019-01-26T05:16:34.107Z,18.87
2019-01-26T05:19:02.526Z,22.00
2019-01-26T05:21:30.986Z,20.50
2019-01-26T05:23:59.423Z,23.97
2019-01-26T05:26:27.882Z,21.17
2019-01-26T05:28:56.300Z,21.17
2019-01-26T05:31:24.829Z,19.93
2019-01-26T05:33:53.262Z,22.23
2019-01-26T05:36:21.743Z,21.43
2019-01-26T05:38:50.172Z,21.87
2019-01-26T05:41:18.603Z,19.30
2019-01-26T05:43:47.070Z,18.30
2019-01-26T05:46:15.491Z,21.93
2019-01-26T05:48:43.952Z,21.27
2019-01-26T05:51:12.380Z,24.37
2019-01-26T05:53:40.825Z,18.90
2019-01-26T05:56:09.326Z,23.87
2019-01-26T05:58:37.783Z,18.80
2019-01-26T06:01:06.279Z,28.80
2019-01-26T06:03:34.729Z,23.60
2019-01-26T06:06:03.222Z,20.50
2019-01-26T06:08:31.675Z,28.43
2019-01-26T06:11:00.573Z,32.93
2019-01-26T06:13:29.027Z,28.57
2019-01-26T06:15:57.453Z,23.80
2019-01-26T06:18:25.908Z,25.50
2019-01-26T06:20:54.331Z,23.03
2019-01-26T06:23:22.795Z,22.83
2019-01-26T06:25:51.217Z,26.30
2019-01-26T06:28:19.669Z,28.27
2019-01-26T06:30:48.097Z,25.77
2019-01-26T06:33:16.555Z,23.60
2019-01-26T06:35:44.979Z,17.53
2019-01-26T06:38:13.494Z,16.70
2019-01-26T06:40:41.921Z,21.97
2019-01-26T06:43:10.378Z,17.70
2019-01-26T06:45:38.806Z,18.50
2019-01-26T06:48:07.256Z,24.03
2019-01-26T06:50:35.688Z,20.30
2019-01-26T06:53:04.109Z,17.60
2019-01-26T06:55:32.556Z,20.47
2019-01-26T06:58:00.974Z,17.60
2019-01-26T07:00:30.276Z,17.23
2019-01-26T07:02:58.758Z,16.77
2019-01-26T07:05:34.470Z,16.03
2019-01-26T07:08:02.894Z,15.10
2019-01-26T07:10:31.334Z,16.33
2019-01-26T07:12:59.753Z,14.43
2019-01-26T07:15:28.205Z,15.77
2019-01-26T07:17:56.620Z,13.23
2019-01-26T07:20:25.066Z,12.33
2019-01-26T07:22:53.557Z,13.67
2019-01-26T07:25:22.072Z,13.43
2019-01-26T07:27:50.488Z,11.97
2019-01-26T07:30:21.676Z,13.47
2019-01-26T07:32:50.167Z,12.50
2019-01-26T07:35:18.677Z,13.00
2019-01-26T07:37:47.364Z,11.60
2019-01-26T07:40:21.121Z,10.20
2019-01-26T07:42:49.601Z,12.90
2019-01-26T07:45:18.382Z,11.93
2019-01-26T07:47:46.865Z,10.77
2019-01-26T07:50:18.820Z,11.63
2019-01-26T07:52:47.312Z,10.70
2019-01-26T07:55:15.884Z,9.50
2019-01-26T07:57:44.379Z,11.00
2019-01-26T08:00:18.825Z,9.87
2019-01-26T08:02:47.241Z,8.90
2019-01-26T08:05:15.756Z,10.33
2019-01-26T08:07:44.241Z,8.63
2019-01-26T08:10:18.694Z,7.80
2019-01-26T08:12:47.114Z,9.37
2019-01-26T08:15:24.457Z,9.17
2019-01-26T08:17:52.879Z,8.23
2019-01-26T08:20:21.966Z,8.20
2019-01-26T08:22:50.382Z,8.40
2019-01-26T08:25:18.901Z,8.67
2019-01-26T08:27:47.853Z,9.40
2019-01-26T08:30:21.264Z,8.30
2019-01-26T08:32:50.144Z,7.97
2019-01-26T08:35:18.989Z,8.87
2019-01-26T08:37:47.875Z,8.60
2019-01-26T08:40:18.427Z,8.33
2019-01-26T08:42:46.868Z,8.03
2019-01-26T08:45:16.220Z,7.60
2019-01-26T08:47:44.735Z,8.00
2019-01-26T08:50:21.480Z,8.70
2019-01-26T08:52:50.056Z,8.30
2019-01-26T08:55:18.731Z,7.43
2019-01-26T08:57:47.282Z,7.10
2019-01-26T09:00:23.741Z,6.20
2019-01-26T09:02:54.960Z,5.90
2019-01-26T09:05:25.355Z,6.63
2019-01-26T09:07:53.800Z,6.83
2019-01-26T09:10:22.210Z,6.10
2019-01-26T09:12:50.647Z,6.83
2019-01-26T09:15:19.059Z,6.73
2019-01-26T09:17:47.566Z,7.10
2019-01-26T09:20:17.424Z,5.90
2019-01-26T09:22:45.862Z,7.27
2019-01-26T09:25:14.420Z,7.30
2019-01-26T09:27:43.136Z,7.23
2019-01-26T09:30:17.045Z,6.90
2019-01-26T09:32:45.558Z,7.07
2019-01-26T09:35:14.043Z,7.40
2019-01-26T09:37:42.549Z,6.70
2019-01-26T09:40:14.512Z,7.40
2019-01-26T09:42:43.018Z,7.57
2019-01-26T09:45:17.194Z,6.97
2019-01-26T09:47:45.968Z,7.50
2019-01-26T09:50:14.926Z,7.10
2019-01-26T09:52:43.410Z,6.20
2019-01-26T09:55:15.024Z,6.50
2019-01-26T09:57:43.571Z,5.93
2019-01-26T10:00:23.568Z,6.17
2019-01-26T10:02:52.122Z,5.73
2019-01-26T10:05:20.641Z,5.20
2019-01-26T10:07:50.099Z,6.50
2019-01-26T10:10:19.775Z,5.87
2019-01-26T10:12:48.426Z,5.80
2019-01-26T10:15:20.041Z,5.50
2019-01-26T10:17:48.874Z,5.53
2019-01-26T10:20:20.348Z,6.63
2019-01-26T10:22:49.096Z,6.77
2019-01-26T10:25:18.474Z,5.20
2019-01-26T10:27:46.960Z,6.47
2019-01-26T10:30:25.937Z,5.00
2019-01-26T10:32:54.482Z,5.03
2019-01-26T10:35:24.642Z,4.90
2019-01-26T10:37:53.390Z,3.90
2019-01-26T10:40:29.742Z,4.20
2019-01-26T10:42:58.322Z,4.70
2019-01-26T10:45:28.070Z,4.90
2019-01-26T10:47:56.951Z,4.60
2019-01-26T10:50:25.735Z,4.60
2019-01-26T10:52:54.481Z,4.57
2019-01-26T10:55:23.260Z,4.40
2019-01-26T10:57:51.909Z,4.10
2019-01-26T11:00:21.960Z,4.80
2019-01-26T11:02:50.909Z,4.07
2019-01-26T11:05:19.692Z,4.40
2019-01-26T11:07:48.450Z,4.20
2019-01-26T11:10:17.220Z,3.77
2019-01-26T11:12:45.776Z,3.50
2019-01-26T11:15:14.546Z,3.97
2019-01-26T11:17:43.096Z,4.27
2019-01-26T11:20:16.045Z,4.30
2019-01-26T11:22:44.656Z,3.63
2019-01-26T11:25:13.839Z,3.93
2019-01-26T11:27:42.390Z,3.40
2019-01-26T11:30:18.780Z,3.90
2019-01-26T11:32:47.529Z,3.80
2019-01-26T11:35:18.409Z,3.70
2019-01-26T11:37:47.161Z,3.50
2019-01-26T11:40:18.079Z,3.80
2019-01-26T11:42:46.993Z,3.93
2019-01-26T11:45:21.287Z,3.97
2019-01-26T11:47:50.005Z,3.20
2019-01-26T11:50:38.605Z,3.30
2019-01-26T11:53:07.472Z,3.23
2019-01-26T11:55:38.290Z,3.27
2019-01-26T11:58:07.037Z,3.03
2019-01-26T12:00:49.678Z,3.20
2019-01-26T12:03:22.794Z,2.83
2019-01-26T12:05:56.580Z,3.20
2019-01-26T12:08:25.766Z,3.73
2019-01-26T12:10:54.544Z,4.57
2019-01-26T12:13:23.298Z,3.93
2019-01-26T12:15:52.099Z,3.50
2019-01-26T12:18:21.411Z,3.00
2019-01-26T12:20:50.174Z,3.30
2019-01-26T12:23:18.660Z,2.83
2019-01-26T12:25:47.404Z,3.53
2019-01-26T12:28:16.183Z,2.83
2019-01-26T12:30:44.928Z,2.97
2019-01-26T12:33:13.828Z,3.13
2019-01-26T12:35:42.477Z,3.67
2019-01-26T12:38:11.259Z,3.33
2019-01-26T12:40:40.042Z,3.83
2019-01-26T12:43:09.150Z,3.93
2019-01-26T12:45:38.493Z,3.80
2019-01-26T12:48:07.410Z,3.27
2019-01-26T12:50:36.615Z,3.47
2019-01-26T12:53:05.902Z,3.40
2019-01-26T12:55:34.858Z,3.60
2019-01-26T12:58:03.843Z,3.47
2019-01-26T13:00:32.819Z,4.20
2019-01-26T13:03:01.728Z,3.30
2019-01-26T13:05:30.610Z,4.30
2019-01-26T13:07:59.692Z,3.70
2019-01-26T13:10:43.585Z,4.00
2019-01-26T13:13:13.302Z,4.10
2019-01-26T13:15:42.635Z,3.60
2019-01-26T13:18:12.247Z,3.60
2019-01-26T13:20:41.532Z,4.33
2019-01-26T13:23:10.500Z,3.80
2019-01-26T13:25:40.110Z,3.30
2019-01-26T13:28:09.415Z,3.23
2019-01-26T13:30:38.915Z,3.47
2019-01-26T13:33:08.364Z,3.10
2019-01-26T13:35:37.553Z,3.50
2019-01-26T13:38:06.807Z,3.80
2019-01-26T13:40:37.211Z,3.50
2019-01-26T13:43:06.865Z,3.57
2019-01-26T13:45:36.058Z,3.20
2019-01-26T13:48:06.022Z,3.53
2019-01-26T13:50:35.714Z,3.43
2019-01-26T13:53:04.945Z,3.50
2019-01-26T13:55:34.174Z,3.37
2019-01-26T13:58:03.072Z,3.87
2019-01-26T14:00:37.033Z,3.80
2019-01-26T14:03:06.301Z,3.10
2019-01-26T14:05:35.281Z,3.43
2019-01-26T14:08:04.138Z,4.07
2019-01-26T14:10:33.022Z,3.73
2019-01-26T14:13:01.881Z,3.60
2019-01-26T14:15:30.750Z,3.77
2019-01-26T14:17:59.606Z,3.63
2019-01-26T14:20:29.414Z,3.93
2019-01-26T14:22:58.629Z,3.40
2019-01-26T14:25:27.800Z,3.67
2019-01-26T14:27:56.865Z,3.20
2019-01-26T14:30:40.454Z,3.30
2019-01-26T14:33:09.342Z,3.67
2019-01-26T14:35:39.507Z,4.03
2019-01-26T14:38:08.945Z,3.10
2019-01-26T14:40:37.979Z,3.57
2019-01-26T14:43:06.729Z,3.97
2019-01-26T14:45:37.331Z,3.50
2019-01-26T14:48:06.189Z,3.57
2019-01-26T14:50:35.083Z,4.00
2019-01-26T14:53:04.149Z,3.77
2019-01-26T14:55:33.038Z,3.80
2019-01-26T14:58:01.894Z,3.90
2019-01-26T15:00:38.252Z,3.77
2019-01-26T15:03:07.220Z,3.80
2019-01-26T15:05:35.999Z,3.93
2019-01-26T15:08:04.848Z,4.50
2019-01-26T15:10:33.639Z,4.50
2019-01-26T15:13:02.623Z,4.60
2019-01-26T15:15:32.130Z,4.10
2019-01-26T15:18:01.531Z,7.00
2019-01-26T15:20:36.060Z,4.73
2019-01-26T15:23:07.239Z,4.77
2019-01-26T15:25:37.750Z,4.53
2019-01-26T15:28:08.138Z,4.77
2019-01-26T15:30:39.311Z,4.50
2019-01-26T15:33:09.299Z,5.80
2019-01-26T15:35:38.658Z,5.90
2019-01-26T15:38:08.559Z,5.77
2019-01-26T15:40:38.306Z,6.30
2019-01-26T15:43:07.814Z,5.63
2019-01-26T15:45:42.657Z,5.50
2019-01-26T15:48:12.067Z,5.87
2019-01-26T15:50:42.061Z,5.90
2019-01-26T15:53:11.529Z,5.00
2019-01-26T15:55:41.273Z,4.60
2019-01-26T15:58:10.888Z,4.77
2019-01-26T16:00:42.151Z,5.17
2019-01-26T16:03:11.772Z,5.03
2019-01-26T16:05:41.310Z,4.90
2019-01-26T16:08:10.743Z,5.27
2019-01-26T16:10:39.781Z,4.80
2019-01-26T16:13:08.744Z,5.50
2019-01-26T16:15:39.005Z,5.00
2019-01-26T16:18:10.430Z,5.20
2019-01-26T16:20:39.817Z,5.53
2019-01-26T16:23:09.767Z,5.73
2019-01-26T16:25:39.452Z,5.70
2019-01-26T16:28:09.156Z,5.73
2019-01-26T16:30:39.106Z,5.47
2019-01-26T16:33:08.715Z,6.30
2019-01-26T16:35:37.708Z,6.73
2019-01-26T16:38:07.458Z,6.60
2019-01-26T16:40:37.111Z,6.00
2019-01-26T16:43:06.704Z,6.30
2019-01-26T16:45:38.330Z,5.70
2019-01-26T16:48:09.261Z,5.87
2019-01-26T16:50:38.882Z,6.97
2019-01-26T16:53:08.683Z,6.60
2019-01-26T16:55:37.888Z,6.70
2019-01-26T16:58:07.627Z,7.07
2019-01-26T17:00:42.011Z,6.80
2019-01-26T17:03:12.093Z,6.73
2019-01-26T17:05:42.158Z,6.20
2019-01-26T17:08:11.657Z,6.10
2019-01-26T17:10:40.880Z,7.50
2019-01-26T17:13:10.723Z,6.37
2019-01-26T17:15:40.426Z,6.60
2019-01-26T17:18:13.822Z,7.10
2019-01-26T17:20:42.135Z,7.33
2019-01-26T17:23:11.481Z,6.40
2019-01-26T17:25:40.250Z,7.00
2019-01-26T17:28:09.304Z,8.13
2019-01-26T17:30:42.517Z,7.17
2019-01-26T17:33:11.529Z,8.17
2019-01-26T17:35:40.384Z,7.67
2019-01-26T17:38:09.622Z,7.53
2019-01-26T17:40:38.386Z,7.30
2019-01-26T17:43:06.963Z,9.07
2019-01-26T17:45:35.849Z,8.60
2019-01-26T17:48:05.408Z,10.30
2019-01-26T17:50:41.892Z,7.30
2019-01-26T17:53:07.328Z,11.13
2019-01-26T17:55:37.002Z,7.47
2019-01-26T17:58:06.546Z,6.73
2019-01-26T18:00:38.455Z,7.23
2019-01-26T18:03:08.258Z,6.60
2019-01-26T18:05:37.856Z,7.10
2019-01-26T18:08:07.056Z,6.63
2019-01-26T18:10:36.302Z,7.20
2019-01-26T18:13:06.044Z,7.27
2019-01-26T18:15:35.547Z,5.63
2019-01-26T18:18:05.497Z,6.60
2019-01-26T18:20:35.504Z,6.50
2019-01-26T18:23:05.535Z,6.20
2019-01-26T18:25:41.813Z,6.70
2019-01-26T18:28:11.879Z,6.27
2019-01-26T18:30:42.295Z,6.60
2019-01-26T18:33:12.158Z,6.73
2019-01-26T18:35:41.957Z,6.00
2019-01-26T18:38:11.606Z,6.50
2019-01-26T18:40:41.100Z,6.50
2019-01-26T18:43:10.658Z,5.50
2019-01-26T18:45:40.278Z,5.30
2019-01-26T18:48:09.615Z,4.80
2019-01-26T18:50:44.400Z,6.00
2019-01-26T18:53:14.178Z,4.90
2019-01-26T18:55:43.773Z,4.50
2019-01-26T18:58:13.393Z,4.90
2019-01-26T19:00:45.433Z,4.57
2019-01-26T19:03:23.284Z,3.73
2019-01-26T19:05:54.224Z,3.90
2019-01-26T19:08:24.272Z,3.73
2019-01-26T19:10:54.438Z,3.93
2019-01-26T19:13:24.450Z,3.60
2019-01-26T19:15:54.205Z,3.40
2019-01-26T19:18:24.116Z,3.33
2019-01-26T19:20:54.061Z,3.40
2019-01-26T19:23:24.073Z,4.50
2019-01-26T19:25:54.232Z,3.30
2019-01-26T19:28:24.247Z,3.40
2019-01-26T19:30:55.111Z,3.40
2019-01-26T19:33:25.740Z,5.30
2019-01-26T19:35:56.211Z,3.60
2019-01-26T19:38:26.732Z,3.80
2019-01-26T19:40:56.981Z,5.00
2019-01-26T19:43:27.117Z,5.07
2019-01-26T19:45:57.377Z,5.10
2019-01-26T19:48:27.389Z,6.37
2019-01-26T19:50:57.864Z,13.30
2019-01-26T19:53:28.480Z,8.00
2019-01-26T19:55:58.860Z,11.13
2019-01-26T19:58:29.066Z,10.10
2019-01-26T20:00:59.539Z,10.90
2019-01-26T20:03:29.541Z,6.70
2019-01-26T20:05:59.916Z,11.70
2019-01-26T20:08:30.176Z,7.50
2019-01-26T20:11:00.701Z,9.60
2019-01-26T20:13:30.913Z,7.90
2019-01-26T20:16:01.040Z,8.50
2019-01-26T20:18:31.586Z,9.60
2019-01-26T20:21:02.265Z,10.60
2019-01-26T20:23:32.678Z,7.80
2019-01-26T20:26:03.330Z,19.30
2019-01-26T20:28:33.591Z,17.60
2019-01-26T20:31:03.534Z,9.57
2019-01-26T20:33:33.543Z,18.63
2019-01-26T20:36:04.309Z,23.00
2019-01-26T20:38:34.743Z,15.63
2019-01-26T20:41:04.900Z,10.27
2019-01-26T20:43:35.005Z,9.10
2019-01-26T20:46:05.680Z,10.50
2019-01-26T20:48:36.012Z,9.83
2019-01-26T20:51:06.367Z,11.00
2019-01-26T20:53:36.683Z,10.40
2019-01-26T20:56:06.951Z,9.40
2019-01-26T20:58:37.469Z,10.60
2019-01-26T21:01:07.734Z,11.03
2019-01-26T21:03:37.944Z,9.97
2019-01-26T21:06:08.316Z,11.00
2019-01-26T21:08:38.933Z,10.30
2019-01-26T21:11:09.331Z,11.10
2019-01-26T21:13:39.418Z,11.03
2019-01-26T21:16:09.481Z,10.93
2019-01-26T21:18:39.696Z,10.07
2019-01-26T21:21:10.104Z,10.80
2019-01-26T21:23:39.755Z,11.30
2019-01-26T21:26:09.727Z,10.77
2019-01-26T21:28:39.633Z,11.50
2019-01-26T21:31:09.494Z,11.87
2019-01-26T21:33:39.497Z,12.00
2019-01-26T21:36:09.559Z,12.13
2019-01-26T21:38:39.864Z,11.53
2019-01-26T21:41:09.875Z,11.50
2019-01-26T21:43:39.546Z,11.03
2019-01-26T21:46:09.231Z,11.47
2019-01-26T21:48:39.093Z,11.73
2019-01-26T21:51:08.930Z,11.00
2019-01-26T21:53:38.679Z,11.57
2019-01-26T21:56:08.378Z,11.73
2019-01-26T21:58:37.870Z,12.40
2019-01-26T22:01:07.840Z,11.90
2019-01-26T22:03:37.798Z,12.97
2019-01-26T22:06:08.117Z,12.13
2019-01-26T22:08:37.968Z,12.17
2019-01-26T22:11:07.670Z,12.60
2019-01-26T22:13:37.224Z,12.57
2019-01-26T22:16:06.717Z,13.57
2019-01-26T22:18:35.713Z,13.43
2019-01-26T22:21:04.475Z,14.50
2019-01-26T22:23:33.607Z,14.37
2019-01-26T22:26:02.360Z,14.33
2019-01-26T22:28:31.707Z,14.80
2019-01-26T22:31:00.467Z,14.97
2019-01-26T22:33:29.377Z,15.00
2019-01-26T22:35:58.581Z,16.40
2019-01-26T22:38:27.473Z,16.20
2019-01-26T22:40:56.752Z,16.70
2019-01-26T22:43:25.698Z,17.70
2019-01-26T22:45:54.460Z,15.37
2019-01-26T22:48:23.367Z,16.70
2019-01-26T22:50:52.122Z,17.33
2019-01-26T22:53:20.826Z,18.57
2019-01-26T22:55:49.371Z,18.80
2019-01-26T22:58:17.953Z,16.60
2019-01-26T23:00:51.185Z,17.17
2019-01-26T23:03:25.886Z,17.00
2019-01-26T23:06:13.925Z,16.53
2019-01-26T23:08:42.511Z,17.40
2019-01-26T23:11:16.972Z,17.53
2019-01-26T23:13:48.591Z,16.87
2019-01-26T23:16:36.367Z,18.70
2019-01-26T23:19:23.211Z,17.57
2019-01-26T23:22:20.756Z,16.90
2019-01-26T23:25:13.346Z,18.13
2019-01-26T23:27:50.611Z,17.07
2019-01-26T23:30:37.382Z,19.00
2019-01-26T23:33:06.145Z,18.50
2019-01-26T23:35:34.658Z,20.07
2019-01-26T23:38:03.077Z,19.70
2019-01-26T23:40:31.590Z,20.50
2019-01-26T23:43:00.079Z,21.30
2019-01-26T23:45:28.527Z,20.50
2019-01-26T23:47:56.950Z,18.33
2019-01-26T23:50:25.393Z,19.63
2019-01-26T23:52:53.886Z,20.53
2019-01-26T23:55:22.338Z,19.57
2019-01-26T23:57:50.755Z,19.07
